Andrew Antrainer — WDI5303 — position and weather

sailwx.info

Track history (hours):
 
Tides and Currents Weather Stations Pressure Air Temp Water Temp Dewpoint Dewpoint Depression Visibility Wind Speed Wind Dir Waves Ship Positions

Andrew Antrainer

Owner: Florida Marine,LLC, Mandeville, LA. More information available from US FCC via Universal Licensing System and Coast Guard Vessel Documentation Center.

Last reported at 2018-Feb-17 17:39 UTC. Time now 2018-Feb-24 23:41 UTC.
Position N 32°01' W 091°04'.

Length 37 m; draft 3.2 m.

Type: Other ship. MMSI: 367707210.

Date/timePositionNaut miles runAvg speedWind from/ knotsBaromVisibWave heightAir tempDewpointWater temp
2018-Feb-17 17:39N 32°01' W 091°04'2 9.8
2018-Feb-17 17:27N 32°03' W 091°03'4 8.5
2018-Feb-17 16:57N 32°06' W 091°06'3 5.6
2018-Feb-17 16:29N 32°08' W 091°03'3 6.9
2018-Feb-17 16:00N 32°09' W 091°00'4 8.8
2018-Feb-17 15:31N 32°14' W 090°59'4 8.5
2018-Feb-17 15:01N 32°17' W 090°56'3 6.9
2018-Feb-17 14:30N 32°21' W 090°55'4 8.0
2018-Feb-17 14:01N 32°21' W 090°60'4 7.6
2018-Feb-17 13:30N 32°25' W 090°60'4 8.4
2018-Feb-17 13:01N 32°27' W 091°04'5 9.3
2018-Feb-17 12:31N 32°31' W 091°06'4 8.0
2018-Feb-17 12:00N 32°35' W 091°07'4 7.9
2018-Feb-17 11:26N 32°39' W 091°09'  
Track history (hours):
 
Tides and Currents Weather Stations Pressure Air Temp Water Temp Dewpoint Dewpoint Depression Visibility Wind Speed Wind Dir Waves Ship Positions

Andrew Antrainer

Owner: Florida Marine,LLC, Mandeville, LA. More information available from US FCC via Universal Licensing System and Coast Guard Vessel Documentation Center.

Last reported at 2018-Feb-17 17:39 UTC. Time now 2018-Feb-24 23:41 UTC.
Position N 32°01' W 091°04'.

Length 37 m; draft 3.2 m.

Type: Other ship. MMSI: 367707210.

Date/timePositionNaut miles runAvg speedWind from/ knotsBaromVisibWave heightAir tempDewpointWater temp
2018-Feb-17 17:39N 32°01' W 091°04'2 9.8
2018-Feb-17 17:27N 32°03' W 091°03'4 8.5
2018-Feb-17 16:57N 32°06' W 091°06'3 5.6
2018-Feb-17 16:29N 32°08' W 091°03'3 6.9
2018-Feb-17 16:00N 32°09' W 091°00'4 8.8
2018-Feb-17 15:31N 32°14' W 090°59'4 8.5
2018-Feb-17 15:01N 32°17' W 090°56'3 6.9
2018-Feb-17 14:30N 32°21' W 090°55'4 8.0
2018-Feb-17 14:01N 32°21' W 090°60'4 7.6
2018-Feb-17 13:30N 32°25' W 090°60'4 8.4
2018-Feb-17 13:01N 32°27' W 091°04'5 9.3
2018-Feb-17 12:31N 32°31' W 091°06'4 8.0
2018-Feb-17 12:00N 32°35' W 091°07'4 7.9
2018-Feb-17 11:26N 32°39' W 091°09'  

Dump ship's entire track history